PFB weather

Lauro Kurtz Airport
Passo Fundo, Rio Grande do Sul, Brazil

Public forecast

Using degrees Celsius for public forecast. Weather courtesy of forecast.io.

METAR (pilot weather report)

Report is more than 6 hours old.

Retrieved 2019/06/15 15:00 UTC (9 hours ago):

SBPF 151500Z 05010KT CAVOK 22/16 Q1023

TAF (pilot weather forecast)

Closest forecast is Santa Maria Airport, 113.5 nm (210.2 km) SW. Retrieved 2019/06/15 18:33 UTC (5 hours ago):

TAF SBSM 151530Z 1518/1606 35006KT CAVOK TX30/1518Z TN21/1606Z BECMG 1519/1521 09003KT RMK PDW